JTM125 KIND-KATL
Flight info
| Callsign | JTM125 |
|---|---|
| Flight time | 1h 31m |
| Altitude | 35000 |
| Route | MYS HITMN NEWBB IHAVE MTHEW |
| Aircraft | B738/M-SDE2FGHIRWY/L |
Departure
| Time | 2026-05-07 04:01 |
|---|---|
| Airport | Indianapolis International Airport (KIND) |
Arrival
| Time | 2026-05-07 05:33 |
|---|---|
| Airport | Hartsfield Jackson Atlanta International Airport (KATL) |
| Time | Latitude | Longitude | Altitude | Speed | Heading |
|---|---|---|---|---|---|
| 2026-05-07 03:45 | 39.71751 | -86.29803 | 773 ft | 0 kts | 129° |
| 2026-05-07 03:51 | 39.71753 | -86.29805 | 773 ft | 1 kts | 129° |
| 2026-05-07 03:52 | 39.71762 | -86.29820 | 773 ft | 2 kts | 129° |
| 2026-05-07 03:52 | 39.71778 | -86.29845 | 772 ft | 3 kts | 129° |
| 2026-05-07 03:52 | 39.71796 | -86.29875 | 772 ft | 4 kts | 129° |
| 2026-05-07 03:52 | 39.71817 | -86.29907 | 771 ft | 3 kts | 129° |
| 2026-05-07 03:53 | 39.71821 | -86.29914 | 771 ft | 0 kts | 129° |
| 2026-05-07 03:55 | 39.71821 | -86.29915 | 771 ft | 0 kts | 129° |
| 2026-05-07 03:56 | 39.71826 | -86.29923 | 771 ft | 0 kts | 85° |
| 2026-05-07 03:56 | 39.71823 | -86.29929 | 771 ft | 0 kts | 33° |
| 2026-05-07 03:56 | 39.71867 | -86.29892 | 771 ft | 14 kts | 33° |
| 2026-05-07 03:56 | 39.71964 | -86.29791 | 773 ft | 18 kts | 37° |
| 2026-05-07 03:57 | 39.72073 | -86.29681 | 776 ft | 22 kts | 38° |
| 2026-05-07 03:57 | 39.72207 | -86.29645 | 776 ft | 21 kts | 323° |
| 2026-05-07 03:57 | 39.72331 | -86.29636 | 776 ft | 19 kts | 41° |
| 2026-05-07 03:57 | 39.72425 | -86.29511 | 779 ft | 18 kts | 47° |
| 2026-05-07 03:58 | 39.72514 | -86.29393 | 781 ft | 17 kts | 45° |
| 2026-05-07 03:58 | 39.72614 | -86.29270 | 784 ft | 20 kts | 43° |
| 2026-05-07 03:58 | 39.72647 | -86.29232 | 785 ft | 0 kts | 35° |
| 2026-05-07 03:58 | 39.72669 | -86.29256 | 784 ft | 9 kts | 313° |
| 2026-05-07 03:59 | 39.72676 | -86.29266 | 784 ft | 0 kts | 314° |
| 2026-05-07 03:59 | 39.72680 | -86.29272 | 784 ft | 4 kts | 313° |
| 2026-05-07 03:59 | 39.72732 | -86.29344 | 782 ft | 13 kts | 313° |
| 2026-05-07 04:00 | 39.72713 | -86.29430 | 781 ft | 11 kts | 241° |
| 2026-05-07 04:00 | 39.72655 | -86.29510 | 779 ft | 12 kts | 226° |
| 2026-05-07 04:00 | 39.72567 | -86.29625 | 777 ft | 40 kts | 225° |
| 2026-05-07 04:00 | 39.72138 | -86.30170 | 766 ft | 127 kts | 225° |
| 2026-05-07 04:01 | 39.71337 | -86.31177 | 841 ft | 186 kts | 225° |
| 2026-05-07 04:01 | 39.70318 | -86.32436 | 1290 ft | 220 kts | 226° |
| 2026-05-07 04:01 | 39.69224 | -86.33772 | 2530 ft | 220 kts | 228° |
| 2026-05-07 04:01 | 39.68142 | -86.35138 | 3701 ft | 222 kts | 231° |
| 2026-05-07 04:02 | 39.67094 | -86.36556 | 4863 ft | 222 kts | 232° |
| 2026-05-07 04:02 | 39.66110 | -86.38005 | 6008 ft | 221 kts | 235° |
| 2026-05-07 04:02 | 39.65176 | -86.39554 | 7058 ft | 218 kts | 238° |
| 2026-05-07 04:02 | 39.64203 | -86.41087 | 7713 ft | 232 kts | 223° |
| 2026-05-07 04:03 | 39.62669 | -86.41890 | 8381 ft | 255 kts | 188° |
| 2026-05-07 04:03 | 39.60903 | -86.41390 | 9092 ft | 274 kts | 157° |
| 2026-05-07 04:03 | 39.59280 | -86.40050 | 9848 ft | 279 kts | 153° |
| 2026-05-07 04:03 | 39.57586 | -86.38830 | 10571 ft | 281 kts | 163° |
| 2026-05-07 04:04 | 39.55776 | -86.38038 | 11334 ft | 277 kts | 175° |
| 2026-05-07 04:04 | 39.53881 | -86.37666 | 12075 ft | 276 kts | 184° |
| 2026-05-07 04:04 | 39.51944 | -86.37504 | 12690 ft | 285 kts | 187° |
| 2026-05-07 04:04 | 39.49915 | -86.37396 | 13296 ft | 297 kts | 187° |
| 2026-05-07 04:05 | 39.47804 | -86.37269 | 13867 ft | 310 kts | 187° |
| 2026-05-07 04:05 | 39.45625 | -86.37112 | 14404 ft | 323 kts | 187° |
| 2026-05-07 04:05 | 39.43333 | -86.36932 | 14920 ft | 337 kts | 187° |
| 2026-05-07 04:05 | 39.40987 | -86.36732 | 15722 ft | 341 kts | 187° |
| 2026-05-07 04:06 | 39.38586 | -86.36522 | 16495 ft | 345 kts | 187° |
| 2026-05-07 04:06 | 39.36208 | -86.36317 | 17166 ft | 352 kts | 188° |
| 2026-05-07 04:06 | 39.33733 | -86.36116 | 17641 ft | 364 kts | 188° |
| 2026-05-07 04:06 | 39.31182 | -86.35910 | 18276 ft | 370 kts | 188° |
| 2026-05-07 04:07 | 39.28593 | -86.35696 | 18978 ft | 374 kts | 188° |
| 2026-05-07 04:07 | 39.26015 | -86.35476 | 19719 ft | 376 kts | 189° |
| 2026-05-07 04:07 | 39.23391 | -86.35253 | 20631 ft | 373 kts | 189° |
| 2026-05-07 04:07 | 39.20810 | -86.35039 | 21252 ft | 377 kts | 190° |
| 2026-05-07 04:08 | 39.18186 | -86.34827 | 21830 ft | 382 kts | 190° |
| 2026-05-07 04:08 | 39.15498 | -86.34624 | 22148 ft | 394 kts | 190° |
| 2026-05-07 04:08 | 39.12711 | -86.34412 | 22533 ft | 403 kts | 190° |
| 2026-05-07 04:08 | 39.09858 | -86.34195 | 22791 ft | 416 kts | 190° |
| 2026-05-07 04:09 | 39.06928 | -86.33969 | 23063 ft | 427 kts | 189° |
| 2026-05-07 04:09 | 39.03945 | -86.33740 | 23247 ft | 440 kts | 189° |
| 2026-05-07 04:09 | 39.00865 | -86.33488 | 23819 ft | 443 kts | 189° |
| 2026-05-07 04:09 | 38.97818 | -86.33218 | 24772 ft | 435 kts | 189° |
| 2026-05-07 04:10 | 38.94851 | -86.32942 | 25720 ft | 428 kts | 191° |
| 2026-05-07 04:10 | 38.91908 | -86.32674 | 26560 ft | 423 kts | 191° |
| 2026-05-07 04:10 | 38.89001 | -86.32418 | 27331 ft | 419 kts | 192° |
| 2026-05-07 04:10 | 38.86124 | -86.32174 | 27996 ft | 417 kts | 193° |
| 2026-05-07 04:11 | 38.83238 | -86.31942 | 28537 ft | 418 kts | 192° |
| 2026-05-07 04:11 | 38.80318 | -86.31713 | 29018 ft | 421 kts | 193° |
| 2026-05-07 04:11 | 38.77393 | -86.31484 | 29643 ft | 419 kts | 193° |
| 2026-05-07 04:11 | 38.74497 | -86.31248 | 30295 ft | 416 kts | 194° |
| 2026-05-07 04:12 | 38.71645 | -86.31015 | 30909 ft | 414 kts | 193° |
| 2026-05-07 04:12 | 38.68790 | -86.30777 | 31516 ft | 411 kts | 194° |
| 2026-05-07 04:12 | 38.65934 | -86.30545 | 32015 ft | 410 kts | 194° |
| 2026-05-07 04:12 | 38.63114 | -86.30312 | 32657 ft | 405 kts | 195° |
| 2026-05-07 04:13 | 38.60296 | -86.30080 | 33243 ft | 401 kts | 195° |
| 2026-05-07 04:13 | 38.57515 | -86.29855 | 33689 ft | 401 kts | 195° |
| 2026-05-07 04:13 | 38.54688 | -86.29639 | 34063 ft | 403 kts | 196° |
| 2026-05-07 04:13 | 38.51813 | -86.29422 | 34423 ft | 405 kts | 195° |
| 2026-05-07 04:14 | 38.48973 | -86.29206 | 34761 ft | 407 kts | 195° |
| 2026-05-07 04:14 | 38.46108 | -86.28981 | 35027 ft | 409 kts | 195° |
| 2026-05-07 04:14 | 38.43246 | -86.28758 | 35024 ft | 408 kts | 195° |
| 2026-05-07 04:15 | 38.37586 | -86.28281 | 35025 ft | 400 kts | 195° |
| 2026-05-07 04:15 | 38.32016 | -86.27833 | 35024 ft | 401 kts | 195° |
| 2026-05-07 04:16 | 38.26477 | -86.27398 | 35029 ft | 404 kts | 195° |
| 2026-05-07 04:16 | 38.20832 | -86.26959 | 35026 ft | 404 kts | 195° |
| 2026-05-07 04:17 | 38.15253 | -86.26502 | 35025 ft | 400 kts | 195° |
| 2026-05-07 04:17 | 38.09713 | -86.26063 | 35025 ft | 404 kts | 195° |
| 2026-05-07 04:18 | 38.04127 | -86.25629 | 35022 ft | 404 kts | 195° |
| 2026-05-07 04:18 | 37.98497 | -86.25177 | 35023 ft | 401 kts | 195° |
| 2026-05-07 04:19 | 37.92892 | -86.24757 | 35031 ft | 401 kts | 197° |
| 2026-05-07 04:19 | 37.87423 | -86.24996 | 35035 ft | 382 kts | 205° |
| 2026-05-07 04:20 | 37.82230 | -86.26138 | 35034 ft | 375 kts | 208° |
| 2026-05-07 04:20 | 37.77201 | -86.27479 | 35036 ft | 371 kts | 208° |
| 2026-05-07 04:21 | 37.69642 | -86.29484 | 35035 ft | 374 kts | 208° |
| 2026-05-07 04:21 | 37.64527 | -86.30806 | 35032 ft | 373 kts | 208° |
| 2026-05-07 04:22 | 37.59456 | -86.32095 | 35031 ft | 371 kts | 207° |
| 2026-05-07 04:22 | 37.54352 | -86.33399 | 35034 ft | 377 kts | 208° |
| 2026-05-07 04:23 | 37.49214 | -86.34712 | 35032 ft | 375 kts | 207° |
| 2026-05-07 04:23 | 37.44075 | -86.36009 | 35031 ft | 380 kts | 208° |
| 2026-05-07 04:24 | 37.38909 | -86.37322 | 35021 ft | 376 kts | 207° |
| 2026-05-07 04:24 | 37.33774 | -86.38609 | 35031 ft | 375 kts | 207° |
| 2026-05-07 04:25 | 37.28618 | -86.39918 | 35029 ft | 380 kts | 207° |
| 2026-05-07 04:25 | 37.23451 | -86.41208 | 34590 ft | 371 kts | 207° |
| 2026-05-07 04:26 | 37.20937 | -86.41830 | 33844 ft | 371 kts | 207° |
| 2026-05-07 04:26 | 37.18407 | -86.42477 | 32629 ft | 380 kts | 206° |
| 2026-05-07 04:26 | 37.15808 | -86.43152 | 31591 ft | 386 kts | 206° |
| 2026-05-07 04:26 | 37.13198 | -86.43813 | 31131 ft | 380 kts | 205° |
| 2026-05-07 04:27 | 37.10595 | -86.44461 | 31030 ft | 382 kts | 205° |
| 2026-05-07 04:27 | 37.07962 | -86.45127 | 31034 ft | 390 kts | 205° |
| 2026-05-07 04:27 | 37.02628 | -86.46473 | 31039 ft | 393 kts | 205° |
| 2026-05-07 04:28 | 36.97255 | -86.47806 | 31040 ft | 388 kts | 205° |
| 2026-05-07 04:28 | 36.91921 | -86.49138 | 31038 ft | 394 kts | 204° |
| 2026-05-07 04:29 | 36.86527 | -86.50488 | 31031 ft | 398 kts | 204° |
| 2026-05-07 04:29 | 36.81112 | -86.51834 | 31028 ft | 393 kts | 204° |
| 2026-05-07 04:30 | 36.75724 | -86.53176 | 31022 ft | 398 kts | 204° |
| 2026-05-07 04:30 | 36.70330 | -86.54518 | 31029 ft | 398 kts | 205° |
| 2026-05-07 04:31 | 36.64908 | -86.55857 | 31021 ft | 395 kts | 204° |
| 2026-05-07 04:31 | 36.59524 | -86.57192 | 31017 ft | 400 kts | 204° |
| 2026-05-07 04:32 | 36.54153 | -86.58518 | 31015 ft | 395 kts | 205° |
| 2026-05-07 04:32 | 36.48734 | -86.59854 | 31018 ft | 397 kts | 205° |
| 2026-05-07 04:33 | 36.43269 | -86.61204 | 31015 ft | 399 kts | 204° |
| 2026-05-07 04:33 | 36.37854 | -86.62540 | 31023 ft | 400 kts | 205° |
| 2026-05-07 04:34 | 36.32452 | -86.63876 | 31022 ft | 397 kts | 205° |
| 2026-05-07 04:34 | 36.26998 | -86.65215 | 31023 ft | 396 kts | 204° |
| 2026-05-07 04:35 | 36.21594 | -86.66541 | 31025 ft | 400 kts | 204° |
| 2026-05-07 04:35 | 36.15910 | -86.67205 | 31030 ft | 424 kts | 191° |
| 2026-05-07 04:36 | 36.12929 | -86.66690 | 31029 ft | 443 kts | 182° |
| 2026-05-07 04:36 | 36.09907 | -86.65530 | 31030 ft | 462 kts | 173° |
| 2026-05-07 04:36 | 36.06963 | -86.63872 | 31033 ft | 475 kts | 168° |
| 2026-05-07 04:36 | 36.04004 | -86.61958 | 31239 ft | 487 kts | 165° |
| 2026-05-07 04:37 | 36.01060 | -86.59910 | 31956 ft | 485 kts | 164° |
| 2026-05-07 04:37 | 35.98159 | -86.57818 | 32636 ft | 482 kts | 164° |
| 2026-05-07 04:37 | 35.95263 | -86.55708 | 33265 ft | 479 kts | 164° |
| 2026-05-07 04:37 | 35.92433 | -86.53651 | 33910 ft | 476 kts | 165° |
| 2026-05-07 04:38 | 35.89555 | -86.51578 | 34371 ft | 477 kts | 165° |
| 2026-05-07 04:38 | 35.86635 | -86.49499 | 34886 ft | 477 kts | 165° |
| 2026-05-07 04:38 | 35.83732 | -86.47448 | 35017 ft | 477 kts | 165° |
| 2026-05-07 04:38 | 35.80839 | -86.45412 | 35004 ft | 478 kts | 165° |
| 2026-05-07 04:39 | 35.75024 | -86.41328 | 35005 ft | 472 kts | 165° |
| 2026-05-07 04:39 | 35.69275 | -86.37290 | 34999 ft | 474 kts | 165° |
| 2026-05-07 04:40 | 35.63609 | -86.33264 | 34994 ft | 468 kts | 165° |
| 2026-05-07 04:40 | 35.57926 | -86.29238 | 34994 ft | 471 kts | 165° |
| 2026-05-07 04:41 | 35.52205 | -86.25188 | 34997 ft | 472 kts | 165° |
| 2026-05-07 04:41 | 35.46581 | -86.21207 | 34993 ft | 466 kts | 165° |
| 2026-05-07 04:42 | 35.40966 | -86.17166 | 34997 ft | 476 kts | 162° |
| 2026-05-07 04:42 | 35.35429 | -86.12615 | 34990 ft | 483 kts | 159° |
| 2026-05-07 04:43 | 35.29979 | -86.07790 | 34991 ft | 480 kts | 158° |
| 2026-05-07 04:43 | 35.24612 | -86.02974 | 34989 ft | 480 kts | 158° |
| 2026-05-07 04:44 | 35.19223 | -85.98249 | 34987 ft | 476 kts | 158° |
| 2026-05-07 04:44 | 35.13718 | -85.93677 | 34988 ft | 476 kts | 160° |
| 2026-05-07 04:45 | 35.08294 | -85.88886 | 34986 ft | 486 kts | 156° |
| 2026-05-07 04:45 | 35.02968 | -85.83728 | 34980 ft | 488 kts | 154° |
| 2026-05-07 04:46 | 34.97793 | -85.78552 | 34980 ft | 475 kts | 153° |
| 2026-05-07 04:46 | 34.92669 | -85.73428 | 34977 ft | 478 kts | 153° |
| 2026-05-07 04:47 | 34.87502 | -85.68314 | 34982 ft | 484 kts | 154° |
| 2026-05-07 04:47 | 34.82280 | -85.63163 | 34970 ft | 483 kts | 153° |
| 2026-05-07 04:48 | 34.77047 | -85.57992 | 34968 ft | 480 kts | 152° |
| 2026-05-07 04:48 | 34.71818 | -85.52846 | 34974 ft | 485 kts | 152° |
| 2026-05-07 04:49 | 34.66597 | -85.47715 | 34966 ft | 477 kts | 152° |
| 2026-05-07 04:49 | 34.61422 | -85.42638 | 34939 ft | 474 kts | 152° |
| 2026-05-07 04:50 | 34.58879 | -85.40138 | 34648 ft | 466 kts | 152° |
| 2026-05-07 04:50 | 34.56404 | -85.37706 | 34139 ft | 460 kts | 152° |
| 2026-05-07 04:50 | 34.53916 | -85.35265 | 33634 ft | 455 kts | 152° |
| 2026-05-07 04:50 | 34.51496 | -85.32890 | 33354 ft | 443 kts | 152° |
| 2026-05-07 04:51 | 34.49117 | -85.30553 | 32867 ft | 437 kts | 152° |
| 2026-05-07 04:51 | 34.46735 | -85.28236 | 32031 ft | 441 kts | 152° |
| 2026-05-07 04:51 | 34.44361 | -85.25935 | 31276 ft | 443 kts | 152° |
| 2026-05-07 04:51 | 34.41949 | -85.23594 | 30893 ft | 434 kts | 153° |
| 2026-05-07 04:52 | 34.39645 | -85.21351 | 30389 ft | 430 kts | 152° |
| 2026-05-07 04:52 | 34.37293 | -85.19067 | 29807 ft | 427 kts | 152° |
| 2026-05-07 04:52 | 34.35033 | -85.16868 | 29438 ft | 419 kts | 152° |
| 2026-05-07 04:52 | 34.32773 | -85.14671 | 28851 ft | 418 kts | 153° |
| 2026-05-07 04:53 | 34.30485 | -85.12458 | 28196 ft | 418 kts | 152° |
| 2026-05-07 04:53 | 34.28244 | -85.10285 | 27711 ft | 414 kts | 152° |
| 2026-05-07 04:53 | 34.25981 | -85.08092 | 27185 ft | 411 kts | 153° |
| 2026-05-07 04:53 | 34.23790 | -85.05971 | 26517 ft | 413 kts | 152° |
| 2026-05-07 04:54 | 34.21531 | -85.03796 | 25934 ft | 411 kts | 152° |
| 2026-05-07 04:54 | 34.19334 | -85.01672 | 25536 ft | 405 kts | 152° |
| 2026-05-07 04:54 | 34.17156 | -84.99560 | 25072 ft | 400 kts | 152° |
| 2026-05-07 04:54 | 34.14987 | -84.97465 | 24518 ft | 398 kts | 152° |
| 2026-05-07 04:55 | 34.12832 | -84.95400 | 23866 ft | 400 kts | 152° |
| 2026-05-07 04:55 | 34.10681 | -84.93359 | 23527 ft | 392 kts | 152° |
| 2026-05-07 04:55 | 34.08528 | -84.91322 | 22941 ft | 392 kts | 153° |
| 2026-05-07 04:55 | 34.06391 | -84.89308 | 22533 ft | 386 kts | 153° |
| 2026-05-07 04:56 | 34.04287 | -84.87316 | 22094 ft | 383 kts | 153° |
| 2026-05-07 04:56 | 34.02193 | -84.85338 | 21318 ft | 391 kts | 152° |
| 2026-05-07 04:56 | 34.00034 | -84.83314 | 20717 ft | 392 kts | 152° |
| 2026-05-07 04:56 | 33.97922 | -84.81325 | 20283 ft | 388 kts | 152° |
| 2026-05-07 04:57 | 33.95802 | -84.79324 | 19833 ft | 384 kts | 152° |
| 2026-05-07 04:57 | 33.93726 | -84.77366 | 19344 ft | 383 kts | 152° |
| 2026-05-07 04:57 | 33.91633 | -84.75401 | 18861 ft | 380 kts | 152° |
| 2026-05-07 04:57 | 33.89526 | -84.73416 | 18314 ft | 381 kts | 151° |
| 2026-05-07 04:58 | 33.87437 | -84.71453 | 17792 ft | 381 kts | 151° |
| 2026-05-07 04:58 | 33.85387 | -84.69519 | 17364 ft | 377 kts | 152° |
| 2026-05-07 04:58 | 33.83311 | -84.67567 | 16812 ft | 378 kts | 151° |
| 2026-05-07 04:58 | 33.81243 | -84.65630 | 16231 ft | 378 kts | 150° |
| 2026-05-07 04:59 | 33.79201 | -84.63712 | 15840 ft | 373 kts | 150° |
| 2026-05-07 04:59 | 33.77175 | -84.61781 | 15602 ft | 363 kts | 148° |
| 2026-05-07 04:59 | 33.75363 | -84.59673 | 15120 ft | 371 kts | 136° |
| 2026-05-07 04:59 | 33.74002 | -84.57024 | 14588 ft | 382 kts | 117° |
| 2026-05-07 05:00 | 33.73328 | -84.53946 | 14073 ft | 385 kts | 97° |
| 2026-05-07 05:00 | 33.73239 | -84.50780 | 13764 ft | 376 kts | 89° |
| 2026-05-07 05:00 | 33.73266 | -84.47640 | 13311 ft | 374 kts | 89° |
| 2026-05-07 05:00 | 33.73293 | -84.44541 | 13027 ft | 366 kts | 89° |
| 2026-05-07 05:01 | 33.73306 | -84.41528 | 12993 ft | 360 kts | 89° |
| 2026-05-07 05:01 | 33.73315 | -84.38496 | 12995 ft | 370 kts | 90° |
| 2026-05-07 05:01 | 33.73319 | -84.35385 | 12994 ft | 370 kts | 90° |
| 2026-05-07 05:01 | 33.73317 | -84.32330 | 12992 ft | 367 kts | 90° |
| 2026-05-07 05:02 | 33.73145 | -84.29284 | 12994 ft | 368 kts | 104° |
| 2026-05-07 05:02 | 33.72237 | -84.26431 | 12993 ft | 361 kts | 126° |
| 2026-05-07 05:02 | 33.70667 | -84.24223 | 12902 ft | 342 kts | 148° |
| 2026-05-07 05:02 | 33.68663 | -84.22849 | 12443 ft | 324 kts | 169° |
| 2026-05-07 05:03 | 33.66520 | -84.22267 | 11927 ft | 314 kts | 179° |
| 2026-05-07 05:03 | 33.64362 | -84.21950 | 11381 ft | 314 kts | 182° |
| 2026-05-07 05:03 | 33.62209 | -84.21689 | 11016 ft | 307 kts | 182° |
| 2026-05-07 05:03 | 33.60092 | -84.21443 | 10697 ft | 300 kts | 182° |
| 2026-05-07 05:04 | 33.58049 | -84.21211 | 10280 ft | 297 kts | 182° |
| 2026-05-07 05:04 | 33.55993 | -84.21024 | 9800 ft | 293 kts | 188° |
| 2026-05-07 05:04 | 33.54083 | -84.21549 | 9323 ft | 274 kts | 215° |
| 2026-05-07 05:04 | 33.52728 | -84.23002 | 9068 ft | 255 kts | 242° |
| 2026-05-07 05:05 | 33.52179 | -84.24955 | 9193 ft | 254 kts | 263° |
| 2026-05-07 05:05 | 33.52169 | -84.27128 | 9181 ft | 265 kts | 271° |
| 2026-05-07 05:05 | 33.52289 | -84.29348 | 9180 ft | 267 kts | 272° |
| 2026-05-07 05:05 | 33.52425 | -84.31552 | 9184 ft | 266 kts | 272° |
| 2026-05-07 05:06 | 33.52560 | -84.33755 | 9178 ft | 265 kts | 272° |
| 2026-05-07 05:06 | 33.52701 | -84.35941 | 9182 ft | 266 kts | 273° |
| 2026-05-07 05:06 | 33.52841 | -84.38171 | 9182 ft | 267 kts | 272° |
| 2026-05-07 05:06 | 33.52980 | -84.40389 | 9180 ft | 266 kts | 272° |
| 2026-05-07 05:07 | 33.53125 | -84.42554 | 9175 ft | 261 kts | 273° |
| 2026-05-07 05:07 | 33.53264 | -84.44726 | 9179 ft | 263 kts | 273° |
| 2026-05-07 05:07 | 33.53404 | -84.46915 | 9184 ft | 267 kts | 273° |
| 2026-05-07 05:07 | 33.53547 | -84.49150 | 9176 ft | 266 kts | 272° |
| 2026-05-07 05:08 | 33.53648 | -84.51350 | 9172 ft | 267 kts | 271° |
| 2026-05-07 05:08 | 33.53723 | -84.53577 | 9174 ft | 264 kts | 271° |
| 2026-05-07 05:08 | 33.53795 | -84.55788 | 9180 ft | 266 kts | 270° |
| 2026-05-07 05:08 | 33.53865 | -84.57971 | 9177 ft | 263 kts | 271° |
| 2026-05-07 05:09 | 33.53920 | -84.60173 | 9171 ft | 264 kts | 270° |
| 2026-05-07 05:09 | 33.53981 | -84.62397 | 9175 ft | 265 kts | 270° |
| 2026-05-07 05:09 | 33.54046 | -84.64593 | 9178 ft | 265 kts | 271° |
| 2026-05-07 05:09 | 33.54101 | -84.66802 | 9179 ft | 268 kts | 270° |
| 2026-05-07 05:10 | 33.54154 | -84.68996 | 9169 ft | 262 kts | 271° |
| 2026-05-07 05:10 | 33.54231 | -84.71197 | 9141 ft | 262 kts | 275° |
| 2026-05-07 05:10 | 33.54814 | -84.73218 | 9004 ft | 257 kts | 298° |
| 2026-05-07 05:10 | 33.56112 | -84.74692 | 8873 ft | 259 kts | 323° |
| 2026-05-07 05:11 | 33.57863 | -84.75281 | 8686 ft | 265 kts | 350° |
| 2026-05-07 05:11 | 33.59703 | -84.75066 | 8435 ft | 272 kts | 9° |
| 2026-05-07 05:11 | 33.61391 | -84.73972 | 8045 ft | 286 kts | 37° |
| 2026-05-07 05:11 | 33.62571 | -84.72037 | 7715 ft | 292 kts | 66° |
| 2026-05-07 05:12 | 33.62972 | -84.69743 | 7403 ft | 273 kts | 88° |
| 2026-05-07 05:12 | 33.63154 | -84.67580 | 7062 ft | 258 kts | 78° |
| 2026-05-07 05:12 | 33.63465 | -84.65487 | 6728 ft | 245 kts | 84° |
| 2026-05-07 05:12 | 33.63525 | -84.63504 | 6462 ft | 230 kts | 94° |
| 2026-05-07 05:13 | 33.63441 | -84.61664 | 6202 ft | 213 kts | 93° |
| 2026-05-07 05:13 | 33.63427 | -84.59992 | 6052 ft | 188 kts | 89° |
| 2026-05-07 05:13 | 33.63463 | -84.58504 | 5792 ft | 174 kts | 90° |
| 2026-05-07 05:13 | 33.63460 | -84.57085 | 5389 ft | 170 kts | 93° |
| 2026-05-07 05:14 | 33.63462 | -84.55685 | 4976 ft | 167 kts | 90° |
| 2026-05-07 05:14 | 33.63472 | -84.54307 | 4531 ft | 166 kts | 91° |
| 2026-05-07 05:14 | 33.63472 | -84.52940 | 4096 ft | 164 kts | 92° |
| 2026-05-07 05:14 | 33.63446 | -84.51600 | 3669 ft | 161 kts | 94° |
| 2026-05-07 05:15 | 33.63458 | -84.50261 | 3274 ft | 157 kts | 90° |
| 2026-05-07 05:15 | 33.63703 | -84.48997 | 2845 ft | 164 kts | 56° |
| 2026-05-07 05:15 | 33.64604 | -84.48134 | 2410 ft | 172 kts | 30° |
| 2026-05-07 05:15 | 33.65610 | -84.46866 | 2218 ft | 249 kts | 60° |
| 2026-05-07 05:16 | 33.66056 | -84.44735 | 2780 ft | 277 kts | 89° |
| 2026-05-07 05:16 | 33.65783 | -84.42501 | 4055 ft | 275 kts | 114° |
| 2026-05-07 05:16 | 33.64955 | -84.40494 | 4976 ft | 280 kts | 121° |
| 2026-05-07 05:16 | 33.64075 | -84.38323 | 4997 ft | 286 kts | 114° |
| 2026-05-07 05:17 | 33.63456 | -84.36136 | 4997 ft | 273 kts | 105° |
| 2026-05-07 05:17 | 33.63106 | -84.33909 | 4993 ft | 271 kts | 99° |
| 2026-05-07 05:17 | 33.62902 | -84.31538 | 5414 ft | 300 kts | 95° |
| 2026-05-07 05:17 | 33.62748 | -84.29038 | 5977 ft | 311 kts | 95° |
| 2026-05-07 05:18 | 33.62588 | -84.26439 | 5989 ft | 309 kts | 95° |
| 2026-05-07 05:18 | 33.62436 | -84.23934 | 5984 ft | 299 kts | 95° |
| 2026-05-07 05:18 | 33.62280 | -84.21406 | 5991 ft | 304 kts | 95° |
| 2026-05-07 05:18 | 33.62123 | -84.18893 | 5988 ft | 300 kts | 95° |
| 2026-05-07 05:19 | 33.61968 | -84.16431 | 5988 ft | 301 kts | 95° |
| 2026-05-07 05:19 | 33.61810 | -84.13909 | 5985 ft | 298 kts | 95° |
| 2026-05-07 05:19 | 33.61657 | -84.11442 | 5981 ft | 304 kts | 95° |
| 2026-05-07 05:19 | 33.61503 | -84.08903 | 5970 ft | 301 kts | 95° |
| 2026-05-07 05:20 | 33.61354 | -84.06412 | 5976 ft | 302 kts | 95° |
| 2026-05-07 05:20 | 33.61203 | -84.03928 | 5990 ft | 298 kts | 95° |
| 2026-05-07 05:20 | 33.61044 | -84.01427 | 6001 ft | 303 kts | 95° |
| 2026-05-07 05:20 | 33.60888 | -83.98917 | 5978 ft | 300 kts | 95° |
| 2026-05-07 05:21 | 33.60737 | -83.96416 | 5973 ft | 297 kts | 95° |
| 2026-05-07 05:21 | 33.60458 | -83.91448 | 5982 ft | 301 kts | 91° |
| 2026-05-07 05:21 | 33.60628 | -83.88980 | 5884 ft | 293 kts | 75° |
| 2026-05-07 05:22 | 33.61496 | -83.86833 | 5737 ft | 279 kts | 50° |
| 2026-05-07 05:22 | 33.62793 | -83.85200 | 5605 ft | 265 kts | 32° |
| 2026-05-07 05:22 | 33.64413 | -83.84300 | 5386 ft | 252 kts | 7° |
| 2026-05-07 05:22 | 33.66118 | -83.84167 | 5107 ft | 243 kts | 349° |
| 2026-05-07 05:23 | 33.67762 | -83.84531 | 4792 ft | 239 kts | 338° |
| 2026-05-07 05:23 | 33.69231 | -83.85428 | 4435 ft | 232 kts | 314° |
| 2026-05-07 05:23 | 33.70221 | -83.86894 | 4165 ft | 224 kts | 295° |
| 2026-05-07 05:23 | 33.70835 | -83.88573 | 3978 ft | 219 kts | 284° |
| 2026-05-07 05:24 | 33.71094 | -83.90332 | 3991 ft | 214 kts | 268° |
| 2026-05-07 05:24 | 33.70804 | -83.92084 | 3990 ft | 216 kts | 248° |
| 2026-05-07 05:24 | 33.70101 | -83.93687 | 3988 ft | 216 kts | 237° |
| 2026-05-07 05:24 | 33.69113 | -83.95071 | 3999 ft | 227 kts | 224° |
| 2026-05-07 05:25 | 33.67862 | -83.96323 | 3999 ft | 241 kts | 221° |
| 2026-05-07 05:25 | 33.66557 | -83.97632 | 4002 ft | 244 kts | 223° |
| 2026-05-07 05:25 | 33.65360 | -83.99071 | 3984 ft | 243 kts | 236° |
| 2026-05-07 05:25 | 33.64558 | -84.00835 | 3988 ft | 239 kts | 244° |
| 2026-05-07 05:26 | 33.63869 | -84.02645 | 3980 ft | 241 kts | 250° |
| 2026-05-07 05:26 | 33.63461 | -84.04585 | 3991 ft | 240 kts | 262° |
| 2026-05-07 05:26 | 33.63366 | -84.06591 | 3993 ft | 244 kts | 268° |
| 2026-05-07 05:26 | 33.63381 | -84.08629 | 3984 ft | 240 kts | 270° |
| 2026-05-07 05:27 | 33.63410 | -84.10586 | 3985 ft | 239 kts | 269° |
| 2026-05-07 05:27 | 33.63417 | -84.12612 | 3983 ft | 238 kts | 269° |
| 2026-05-07 05:27 | 33.63419 | -84.14603 | 3989 ft | 242 kts | 269° |
| 2026-05-07 05:27 | 33.63425 | -84.16631 | 3991 ft | 242 kts | 269° |
| 2026-05-07 05:28 | 33.63431 | -84.18625 | 3991 ft | 241 kts | 269° |
| 2026-05-07 05:28 | 33.63436 | -84.20626 | 3974 ft | 229 kts | 269° |
| 2026-05-07 05:28 | 33.63441 | -84.22398 | 3948 ft | 198 kts | 269° |
| 2026-05-07 05:28 | 33.63446 | -84.23977 | 3701 ft | 183 kts | 268° |
| 2026-05-07 05:29 | 33.63448 | -84.25442 | 3458 ft | 170 kts | 268° |
| 2026-05-07 05:29 | 33.63450 | -84.26779 | 3264 ft | 151 kts | 269° |
| 2026-05-07 05:29 | 33.63465 | -84.27949 | 3098 ft | 131 kts | 267° |
| 2026-05-07 05:29 | 33.63457 | -84.29053 | 2852 ft | 130 kts | 266° |
| 2026-05-07 05:30 | 33.63452 | -84.30115 | 2717 ft | 132 kts | 269° |
| 2026-05-07 05:30 | 33.63458 | -84.31217 | 2537 ft | 131 kts | 268° |
| 2026-05-07 05:30 | 33.63462 | -84.32313 | 2349 ft | 133 kts | 269° |
| 2026-05-07 05:30 | 33.63461 | -84.33444 | 2188 ft | 137 kts | 270° |
| 2026-05-07 05:31 | 33.63461 | -84.34590 | 1998 ft | 136 kts | 270° |
| 2026-05-07 05:31 | 33.63467 | -84.35712 | 1803 ft | 136 kts | 270° |
| 2026-05-07 05:31 | 33.63475 | -84.36859 | 1668 ft | 139 kts | 271° |
| 2026-05-07 05:31 | 33.63478 | -84.38019 | 1494 ft | 141 kts | 268° |
| 2026-05-07 05:32 | 33.63458 | -84.39205 | 1318 ft | 140 kts | 271° |
| 2026-05-07 05:32 | 33.63467 | -84.40356 | 1127 ft | 138 kts | 269° |
| 2026-05-07 05:32 | 33.63472 | -84.41486 | 1003 ft | 130 kts | 271° |
| 2026-05-07 05:32 | 33.63469 | -84.42506 | 997 ft | 106 kts | 270° |
| 2026-05-07 05:33 | 33.63472 | -84.43063 | 1006 ft | 29 kts | 270° |
| 2026-05-07 05:33 | 33.63472 | -84.43121 | 1006 ft | 0 kts | 270° |
| 2026-05-07 05:34 | 33.63472 | -84.43125 | 1006 ft | 5 kts | 270° |
| 2026-05-07 05:34 | 33.63468 | -84.43209 | 1008 ft | 9 kts | 268° |
| 2026-05-07 05:34 | 33.63468 | -84.43286 | 1009 ft | 8 kts | 269° |
| 2026-05-07 05:34 | 33.63467 | -84.43385 | 1009 ft | 15 kts | 272° |
| 2026-05-07 05:35 | 33.63469 | -84.43535 | 1011 ft | 16 kts | 275° |
| 2026-05-07 05:35 | 33.63527 | -84.43607 | 1012 ft | 12 kts | 355° |
| 2026-05-07 05:35 | 33.63578 | -84.43665 | 1013 ft | 10 kts | 275° |
| 2026-05-07 05:35 | 33.63620 | -84.43752 | 1013 ft | 17 kts | 346° |
| 2026-05-07 05:36 | 33.63765 | -84.43786 | 1013 ft | 24 kts | 359° |
| 2026-05-07 05:36 | 33.63925 | -84.43793 | 1013 ft | 22 kts | 347° |
| 2026-05-07 05:36 | 33.63956 | -84.43866 | 1014 ft | 0 kts | 274° |
| 2026-05-07 05:36 | 33.63956 | -84.43864 | 1014 ft | 2 kts | 274° |
| 2026-05-07 05:37 | 33.63961 | -84.43827 | 1013 ft | 4 kts | 244° |
| 2026-05-07 05:37 | 33.63966 | -84.43816 | 1013 ft | 0 kts | 265° |
| 2026-05-07 05:37 | 33.63969 | -84.43876 | 1014 ft | 0 kts | 272° |
| 2026-05-07 05:37 | 33.63969 | -84.43867 | 1014 ft | 0 kts | 272° |